createdAt,value
2018-02-24T07:37:23.273Z,57.78
2018-02-24T07:38:13.158Z,57.40
2018-02-24T07:39:13.092Z,57.59
2018-02-24T07:40:13.076Z,57.21
2018-02-24T07:41:13.023Z,57.21
2018-02-24T07:42:13.026Z,57.21
2018-02-24T07:43:12.964Z,56.74
2018-02-24T07:44:12.996Z,56.74
2018-02-24T07:45:12.896Z,56.93
2018-02-24T07:46:12.864Z,56.74
2018-02-24T07:47:12.835Z,57.12
2018-02-24T07:48:12.811Z,56.84
2018-02-24T07:49:12.781Z,56.93
2018-02-24T07:50:12.750Z,57.12
2018-02-24T07:51:12.718Z,56.93
2018-02-24T07:52:12.683Z,56.36
2018-02-24T07:53:12.687Z,56.46
2018-02-24T07:54:12.633Z,56.55
2018-02-24T07:55:12.592Z,56.65
2018-02-24T07:56:12.592Z,56.17
2018-02-24T07:57:12.548Z,56.65
2018-02-24T07:58:12.531Z,56.46
2018-02-24T07:59:12.493Z,56.27
2018-02-24T08:00:12.448Z,55.89
2018-02-24T08:01:12.430Z,55.70
2018-02-24T08:02:12.397Z,55.89
2018-02-24T08:03:12.371Z,55.80
2018-02-24T08:04:12.328Z,55.98
2018-02-24T08:05:12.323Z,55.04
2018-02-24T08:06:12.285Z,54.75
2018-02-24T08:07:12.252Z,54.79
2018-02-24T08:08:12.213Z,54.79
2018-02-24T08:09:12.204Z,55.54
2018-02-24T08:10:12.168Z,54.69
2018-02-24T08:11:12.156Z,54.60
2018-02-24T08:12:12.107Z,54.50
2018-02-24T08:13:12.120Z,54.22
2018-02-24T08:14:12.063Z,54.41
2018-02-24T08:16:45.166Z,53.27
2018-02-24T08:17:35.059Z,53.37
2018-02-24T08:18:34.978Z,53.37
2018-02-24T08:19:34.961Z,53.37
2018-02-24T08:20:34.926Z,53.84
2018-02-24T08:21:34.889Z,53.94
2018-02-24T08:22:34.893Z,53.37
2018-02-24T08:23:34.840Z,52.99
2018-02-24T08:24:34.814Z,53.27
2018-02-24T08:25:34.782Z,52.04
2018-02-24T08:26:34.738Z,52.23
2018-02-24T08:27:34.739Z,52.70
2018-02-24T08:30:07.863Z,52.33
2018-02-24T08:32:20.742Z,52.14
2018-02-24T08:33:20.815Z,51.86
2018-02-24T08:35:53.859Z,51.57
2018-02-24T08:36:43.663Z,51.39
2018-02-24T08:37:43.664Z,51.39
2018-02-24T08:38:43.596Z,51.76
2018-02-24T08:39:43.575Z,50.91
2018-02-24T08:40:43.511Z,50.53
2018-02-24T08:41:43.482Z,50.35
2018-02-24T08:42:43.464Z,50.37
2018-02-24T08:43:43.419Z,50.35
2018-02-24T08:44:43.400Z,50.35
2018-02-24T08:45:43.365Z,50.37
2018-02-24T08:46:43.359Z,50.27
2018-02-24T08:47:43.312Z,49.62
2018-02-24T08:48:43.305Z,49.24
2018-02-24T08:49:43.246Z,49.52
2018-02-24T08:50:43.223Z,50.09
2018-02-24T08:51:43.218Z,49.33
2018-02-24T08:52:43.189Z,48.95
2018-02-24T08:53:43.137Z,49.43
2018-02-24T08:54:43.113Z,48.95
2018-02-24T08:55:43.116Z,49.33
2018-02-24T08:56:43.056Z,49.14
2018-02-24T08:57:43.031Z,49.05
2018-02-24T08:58:43.003Z,48.57
2018-02-24T08:59:42.975Z,49.05
2018-02-24T09:00:42.972Z,48.67
2018-02-24T09:01:42.927Z,49.14
2018-02-24T09:02:42.920Z,48.39
2018-02-24T09:03:42.860Z,48.48
2018-02-24T09:04:42.873Z,48.10
2018-02-24T09:05:42.805Z,48.20
2018-02-24T09:06:42.805Z,48.29
2018-02-24T09:07:42.769Z,51.13
2018-02-24T09:08:42.733Z,50.75
2018-02-24T09:09:42.705Z,49.52
2018-02-24T09:12:05.939Z,47.91
2018-02-24T09:13:05.761Z,48.01
2018-02-24T09:14:05.661Z,47.82
2018-02-24T09:16:27.735Z,47.53
2018-02-24T09:18:50.694Z,47.06
2018-02-24T09:21:13.672Z,46.50
2018-02-24T09:22:14.093Z,46.59
2018-02-24T09:24:35.640Z,46.40
2018-02-24T09:25:35.649Z,46.21
2018-02-24T09:27:59.805Z,46.59
2018-02-24T09:28:58.532Z,46.40
2018-02-24T09:31:21.749Z,46.12
2018-02-24T09:33:44.565Z,45.86
2018-02-24T09:34:45.420Z,46.42
2018-02-24T09:35:44.849Z,46.33
2018-02-24T09:38:07.539Z,45.76
2018-02-24T09:40:30.589Z,45.67
2018-02-24T09:43:08.222Z,45.67
2018-02-24T09:43:56.724Z,45.76
2018-02-24T09:46:29.900Z,44.82
2018-02-24T09:47:19.296Z,44.82
2018-02-24T09:49:41.906Z,44.34
2018-02-24T09:50:41.909Z,44.63
2018-02-24T09:51:43.174Z,44.44
2018-02-24T09:52:41.842Z,44.44
2018-02-24T09:53:41.753Z,44.53
2018-02-24T09:56:16.819Z,44.06
2018-02-24T09:58:35.977Z,44.06
2018-02-24T09:59:26.735Z,44.06
2018-02-24T10:00:26.756Z,44.25
2018-02-24T10:02:49.686Z,44.15
2018-02-24T10:05:12.683Z,43.96
2018-02-24T10:06:12.884Z,43.96
2018-02-24T10:07:13.972Z,43.96
2018-02-24T10:08:16.069Z,44.25
2018-02-24T10:09:12.562Z,43.96
2018-02-24T10:10:12.828Z,44.15
2018-02-24T10:11:12.488Z,44.18
2018-02-24T10:12:12.528Z,44.46
2018-02-24T10:13:12.451Z,44.46
2018-02-24T10:15:35.463Z,44.37
2018-02-24T10:16:35.423Z,44.46
2018-02-24T10:17:38.138Z,44.37
2018-02-24T10:18:35.375Z,44.65
2018-02-24T10:19:35.356Z,44.74
2018-02-24T10:20:35.318Z,44.46
2018-02-24T10:21:35.397Z,44.37
2018-02-24T10:24:09.108Z,44.65
2018-02-24T10:24:58.324Z,44.65
2018-02-24T10:26:11.022Z,44.84
2018-02-24T10:27:53.930Z,44.65
2018-02-24T10:28:55.479Z,45.31
2018-02-24T10:31:15.849Z,45.03
2018-02-24T10:33:39.231Z,45.60
2018-02-24T10:34:48.002Z,46.17
2018-02-24T10:36:33.586Z,45.88
2018-02-24T10:38:56.388Z,46.17
2018-02-24T10:39:56.210Z,46.07
2018-02-24T10:40:57.471Z,46.26
2018-02-24T10:43:18.404Z,46.36
2018-02-24T10:45:52.244Z,46.92
2018-02-24T10:46:41.598Z,46.45
2018-02-24T10:47:41.290Z,46.36
2018-02-24T10:48:49.632Z,46.17
2018-02-24T10:49:41.188Z,46.36
2018-02-24T10:52:05.036Z,46.26
2018-02-24T10:53:13.621Z,46.55
2018-02-24T10:55:07.726Z,46.64
2018-02-24T10:55:58.465Z,47.20
2018-02-24T10:56:58.445Z,47.02
2018-02-24T10:57:58.424Z,47.20
2018-02-24T10:58:58.558Z,47.04
2018-02-24T10:59:58.493Z,47.58
2018-02-24T11:00:58.331Z,47.70
2018-02-24T11:01:58.388Z,47.80
2018-02-24T11:02:58.328Z,47.89
2018-02-24T11:03:58.311Z,48.08
2018-02-24T11:04:58.226Z,48.27
2018-02-24T11:05:58.268Z,48.65
2018-02-24T11:06:58.192Z,48.55
2018-02-24T11:07:58.160Z,48.55
2018-02-24T11:08:58.129Z,48.18
2018-02-24T11:09:58.122Z,48.36
2018-02-24T11:10:58.088Z,48.27
2018-02-24T11:11:58.093Z,48.74
2018-02-24T11:12:58.092Z,48.55
2018-02-24T11:13:58.070Z,48.46
2018-02-24T11:14:57.981Z,48.65
2018-02-24T11:15:57.950Z,48.36
2018-02-24T11:16:57.918Z,48.36
2018-02-24T11:19:21.005Z,48.84
2018-02-24T11:20:20.907Z,48.46
2018-02-24T11:21:21.118Z,48.36
2018-02-24T11:22:21.006Z,48.55
2018-02-24T11:24:54.027Z,49.31
2018-02-24T11:25:44.764Z,49.31
2018-02-24T11:26:43.805Z,48.55
2018-02-24T11:27:53.700Z,48.65
2018-02-24T11:29:39.322Z,48.55
2018-02-24T11:30:39.210Z,48.84
2018-02-24T11:31:39.253Z,48.65
2018-02-24T11:32:39.055Z,48.74
2018-02-24T11:35:13.162Z,48.36
2018-02-24T11:36:02.261Z,49.31
2018-02-24T11:38:25.137Z,49.03
2018-02-24T11:40:49.061Z,49.12
2018-02-24T11:41:49.028Z,49.69
2018-02-24T11:42:58.749Z,49.88
2018-02-24T11:45:22.197Z,49.79
2018-02-24T11:46:11.999Z,49.88
2018-02-24T11:47:14.665Z,50.26
2018-02-24T11:48:11.906Z,50.35
2018-02-24T11:49:11.875Z,50.54
2018-02-24T11:50:11.862Z,50.57
2018-02-24T11:51:11.832Z,50.57
2018-02-24T11:53:45.954Z,50.00
2018-02-24T11:56:08.015Z,50.54
2018-02-24T11:56:57.884Z,50.57
2018-02-24T11:57:57.870Z,50.66
2018-02-24T11:58:57.907Z,50.57
2018-02-24T12:01:20.812Z,50.66
2018-02-24T12:03:53.875Z,50.85
2018-02-24T12:04:43.908Z,51.04
2018-02-24T12:05:43.698Z,51.04
2018-02-24T12:06:43.816Z,51.61
2018-02-24T12:07:43.796Z,51.80
2018-02-24T12:08:43.719Z,51.80
2018-02-24T12:09:43.596Z,51.89
2018-02-24T12:10:43.586Z,51.99
2018-02-24T12:11:43.605Z,51.70
2018-02-24T12:12:43.524Z,51.32
2018-02-24T12:13:43.518Z,51.99
2018-02-24T12:14:43.481Z,52.18
2018-02-24T12:15:43.512Z,52.08
2018-02-24T12:16:43.451Z,52.27
2018-02-24T12:17:43.405Z,51.99
2018-02-24T12:18:43.483Z,52.75
2018-02-24T12:19:43.351Z,52.27
2018-02-24T12:20:43.386Z,52.46
2018-02-24T12:21:43.643Z,52.18
2018-02-24T12:24:15.589Z,52.75
2018-02-24T12:25:05.489Z,52.65
2018-02-24T12:26:05.610Z,52.65
2018-02-24T12:27:05.304Z,52.37
2018-02-24T12:28:05.281Z,52.56
2018-02-24T12:29:05.246Z,52.46
2018-02-24T12:30:05.214Z,52.56
2018-02-24T12:31:05.185Z,52.65
2018-02-24T12:32:05.202Z,52.56
2018-02-24T12:33:05.134Z,52.84
2018-02-24T12:35:29.244Z,52.75
2018-02-24T12:36:29.193Z,53.50
2018-02-24T12:37:29.114Z,53.41
2018-02-24T12:38:29.122Z,53.41
2018-02-24T12:39:29.053Z,53.13
2018-02-24T12:40:29.033Z,53.31
2018-02-24T12:41:29.005Z,52.75
2018-02-24T12:42:28.979Z,52.65
2018-02-24T12:43:29.015Z,53.03
2018-02-24T12:44:28.987Z,53.41
2018-02-24T12:45:28.906Z,53.41
2018-02-24T12:46:28.971Z,53.03
2018-02-24T12:47:28.896Z,53.41
2018-02-24T12:48:28.910Z,52.94
2018-02-24T12:49:28.848Z,52.84
2018-02-24T12:52:02.508Z,53.15
2018-02-24T12:52:52.771Z,53.53
2018-02-24T12:53:52.741Z,53.25
2018-02-24T12:54:52.642Z,52.77
2018-02-24T12:55:52.548Z,53.53
2018-02-24T12:56:52.525Z,53.34
2018-02-24T12:57:52.498Z,52.77
2018-02-24T12:58:52.528Z,53.34
2018-02-24T12:59:53.253Z,53.06
2018-02-24T13:00:52.474Z,53.34
2018-02-24T13:01:52.427Z,53.63
2018-02-24T13:02:52.382Z,53.44
2018-02-24T13:03:52.357Z,54.10
2018-02-24T13:04:52.336Z,54.10
2018-02-24T13:05:52.301Z,53.91
2018-02-24T13:06:52.284Z,54.00
2018-02-24T13:07:52.277Z,54.00
2018-02-24T13:08:52.233Z,53.53
2018-02-24T13:09:52.231Z,53.91
2018-02-24T13:10:52.201Z,53.81
2018-02-24T13:13:14.684Z,54.10
2018-02-24T13:14:14.372Z,53.91
2018-02-24T13:15:14.342Z,54.19
2018-02-24T13:17:37.458Z,53.44
2018-02-24T13:18:37.368Z,53.53
2018-02-24T13:19:37.350Z,54.19
2018-02-24T13:20:37.318Z,54.10
2018-02-24T13:21:37.298Z,54.47
2018-02-24T13:22:37.269Z,54.57
2018-02-24T13:23:37.336Z,54.47
2018-02-24T13:24:37.355Z,54.47
2018-02-24T13:25:37.255Z,54.67
2018-02-24T13:26:37.219Z,54.19
2018-02-24T13:27:37.160Z,54.38
2018-02-24T13:28:37.139Z,54.10
2018-02-24T13:29:37.113Z,54.38
2018-02-24T13:30:37.126Z,54.47
2018-02-24T13:31:37.060Z,54.00
2018-02-24T13:32:37.042Z,54.76
2018-02-24T13:35:10.336Z,53.53
2018-02-24T13:36:13.640Z,53.53
2018-02-24T13:38:04.874Z,53.91
2018-02-24T13:38:54.893Z,54.10
2018-02-24T13:39:55.012Z,53.91
2018-02-24T13:40:54.497Z,54.47
2018-02-24T13:41:54.482Z,55.52
2018-02-24T13:42:54.466Z,54.19
2018-02-24T13:43:54.513Z,53.91
2018-02-24T13:44:54.410Z,54.10
2018-02-24T13:45:54.434Z,53.53
2018-02-24T13:46:54.345Z,53.34
2018-02-24T13:47:54.403Z,53.44
2018-02-24T13:48:54.310Z,52.77
2018-02-24T13:49:54.281Z,52.68
2018-02-24T13:50:54.255Z,52.58
2018-02-24T13:51:54.245Z,53.44
2018-02-24T13:52:54.230Z,53.44
2018-02-24T13:53:54.226Z,53.15
2018-02-24T13:54:54.238Z,52.68
2018-02-24T13:55:54.146Z,53.34
2018-02-24T13:56:54.116Z,53.25
2018-02-24T13:57:54.094Z,53.44
2018-02-24T13:58:54.088Z,53.91
2018-02-24T13:59:54.052Z,54.00
2018-02-24T14:00:54.027Z,54.10
2018-02-24T14:01:54.012Z,53.78
2018-02-24T14:02:54.032Z,54.45
2018-02-24T14:03:53.989Z,54.26
2018-02-24T14:04:53.934Z,54.45
2018-02-24T14:05:53.912Z,54.83
2018-02-24T14:06:53.886Z,54.64
2018-02-24T14:07:53.867Z,54.64
2018-02-24T14:08:53.842Z,54.64
2018-02-24T14:09:53.828Z,54.45
2018-02-24T14:10:53.786Z,54.55
2018-02-24T14:11:53.764Z,54.74
2018-02-24T14:12:53.746Z,54.45
2018-02-24T14:13:53.717Z,54.83
2018-02-24T14:14:53.766Z,54.28
2018-02-24T14:15:53.735Z,53.91
2018-02-24T14:16:53.655Z,53.91
2018-02-24T14:17:53.634Z,53.34
2018-02-24T14:18:53.601Z,53.06
2018-02-24T14:19:53.577Z,52.77
2018-02-24T14:20:53.548Z,52.87
2018-02-24T14:21:53.532Z,53.15
2018-02-24T14:22:53.512Z,52.68
2018-02-24T14:23:53.497Z,52.87
2018-02-24T14:24:53.469Z,52.77
2018-02-24T14:25:53.479Z,52.68
2018-02-24T14:26:53.418Z,52.77
2018-02-24T14:27:53.390Z,52.58
2018-02-24T14:28:53.526Z,52.58
2018-02-24T14:29:53.337Z,53.15
2018-02-24T14:30:53.409Z,52.77
2018-02-24T14:31:53.321Z,52.68
2018-02-24T14:32:53.291Z,52.20
2018-02-24T14:33:53.268Z,52.20
2018-02-24T14:34:53.685Z,52.29
2018-02-24T14:35:53.203Z,52.48
2018-02-24T14:36:53.181Z,52.58
2018-02-24T14:37:53.183Z,52.58
2018-02-24T14:38:53.136Z,52.39
2018-02-24T14:39:53.116Z,52.48
2018-02-24T14:40:53.291Z,52.77
2018-02-24T14:41:53.063Z,52.84
2018-02-24T14:42:53.064Z,52.75
2018-02-24T14:43:53.036Z,52.84
2018-02-24T14:44:53.040Z,52.46
2018-02-24T14:45:53.940Z,53.31
2018-02-24T14:46:52.972Z,52.65
2018-02-24T14:47:52.915Z,53.31
2018-02-24T14:50:17.656Z,53.59
2018-02-24T14:51:17.848Z,53.50
2018-02-24T14:52:17.075Z,53.03
2018-02-24T14:53:17.066Z,53.50
2018-02-24T14:54:17.620Z,53.41
2018-02-24T14:55:17.008Z,53.41
2018-02-24T14:56:16.989Z,53.41
2018-02-24T14:57:16.953Z,53.41
2018-02-24T14:58:16.935Z,53.41
2018-02-24T14:59:16.947Z,53.59
2018-02-24T15:00:16.894Z,53.50
2018-02-24T15:01:16.897Z,53.41
2018-02-24T15:02:16.848Z,53.50
2018-02-24T15:03:16.826Z,53.97
2018-02-24T15:04:18.466Z,54.64
2018-02-24T15:06:38.916Z,55.58
2018-02-24T15:07:39.139Z,55.65
2018-02-24T15:09:33.318Z,56.03
2018-02-24T15:10:33.262Z,56.22
2018-02-24T15:11:33.198Z,56.03
2018-02-24T15:13:56.204Z,56.41
2018-02-24T15:14:56.224Z,56.51
2018-02-24T15:15:56.162Z,56.60
2018-02-24T15:16:56.215Z,56.88
2018-02-24T15:17:56.112Z,56.51
2018-02-24T15:18:56.185Z,56.98
2018-02-24T15:19:56.040Z,57.26
2018-02-24T15:20:56.019Z,56.98
2018-02-24T15:21:56.088Z,56.70
2018-02-24T15:22:55.962Z,56.98
2018-02-24T15:23:56.030Z,57.17
2018-02-24T15:24:55.929Z,57.07
2018-02-24T15:25:55.897Z,56.88
2018-02-24T15:26:55.865Z,56.60
2018-02-24T15:27:55.836Z,57.17
2018-02-24T15:28:55.816Z,57.07
2018-02-24T15:29:55.794Z,56.88
2018-02-24T15:30:55.773Z,56.79
2018-02-24T15:31:55.745Z,56.70
2018-02-24T15:32:55.718Z,57.64
2018-02-24T15:33:55.689Z,57.73
2018-02-24T15:34:55.722Z,57.52
2018-02-24T15:35:55.738Z,57.90
2018-02-24T15:36:55.663Z,57.64
2018-02-24T15:37:55.622Z,57.99
2018-02-24T15:38:55.630Z,57.90
2018-02-24T15:39:55.541Z,58.75
2018-02-24T15:42:28.716Z,58.37
2018-02-24T15:43:18.529Z,58.94
2018-02-24T15:44:18.511Z,59.41
2018-02-24T15:45:18.475Z,59.31
2018-02-24T15:46:18.472Z,58.84
2018-02-24T15:47:18.430Z,59.03
2018-02-24T15:48:18.407Z,59.22
2018-02-24T15:49:18.368Z,59.60
2018-02-24T15:50:18.383Z,59.69
2018-02-24T15:51:18.314Z,60.17
2018-02-24T15:52:18.297Z,59.50
2018-02-24T15:53:18.276Z,59.88
2018-02-24T15:54:18.247Z,60.07
2018-02-24T15:55:18.801Z,60.26
2018-02-24T15:56:18.188Z,60.45
2018-02-24T15:57:18.199Z,60.26
2018-02-24T15:58:18.168Z,59.98
2018-02-24T15:59:20.603Z,59.88
2018-02-24T16:00:18.140Z,60.36
2018-02-24T16:01:18.088Z,60.07
2018-02-24T16:02:18.045Z,60.17
2018-02-24T16:03:18.149Z,60.17
2018-02-24T16:04:18.556Z,59.98
2018-02-24T16:05:18.051Z,60.26
2018-02-24T16:06:18.030Z,59.88
2018-02-24T16:07:17.918Z,60.07
2018-02-24T16:08:17.886Z,60.07
2018-02-24T16:09:17.883Z,60.07
2018-02-24T16:10:17.849Z,60.17
2018-02-24T16:11:17.826Z,60.36
2018-02-24T16:13:40.890Z,60.26
2018-02-24T16:14:40.852Z,59.88
2018-02-24T16:15:40.743Z,60.36
2018-02-24T16:18:03.794Z,59.98
2018-02-24T16:19:03.726Z,60.26
2018-02-24T16:20:03.684Z,60.55
2018-02-24T16:21:03.695Z,60.17
2018-02-24T16:22:03.739Z,60.07
2018-02-24T16:23:03.649Z,60.26
2018-02-24T16:24:03.708Z,59.98
2018-02-24T16:25:03.552Z,60.17
2018-02-24T16:26:11.900Z,60.26
2018-02-24T16:27:57.913Z,59.79
2018-02-24T16:28:57.835Z,59.41
2018-02-24T16:30:05.523Z,59.31
2018-02-24T16:31:52.240Z,59.12
2018-02-24T16:34:15.288Z,58.84
2018-02-24T16:35:15.302Z,58.84
2018-02-24T16:37:48.296Z,58.75
2018-02-24T16:40:01.431Z,58.18
2018-02-24T16:41:01.142Z,57.90
2018-02-24T16:43:24.206Z,57.14
2018-02-24T16:44:24.197Z,57.23
2018-02-24T16:45:24.110Z,57.14
2018-02-24T16:46:24.100Z,56.95
2018-02-24T16:47:24.055Z,56.95
2018-02-24T16:48:24.163Z,57.04
2018-02-24T16:49:24.004Z,56.48
2018-02-24T16:50:24.138Z,56.76
2018-02-24T16:51:23.947Z,57.23
2018-02-24T16:52:23.926Z,57.14
2018-02-24T16:53:23.961Z,57.04
2018-02-24T16:54:23.890Z,56.38
2018-02-24T16:55:23.840Z,56.29
2018-02-24T16:56:23.930Z,56.29
2018-02-24T16:57:23.803Z,55.98
2018-02-24T16:58:23.840Z,55.82
2018-02-24T16:59:23.750Z,55.88
2018-02-24T17:00:23.707Z,55.60
2018-02-24T17:01:23.685Z,55.31
2018-02-24T17:03:46.675Z,55.98
2018-02-24T17:04:46.737Z,55.60
2018-02-24T17:05:46.650Z,55.50
2018-02-24T17:06:47.823Z,55.03
2018-02-24T17:07:55.292Z,54.46
2018-02-24T17:09:52.023Z,54.46
2018-02-24T17:10:41.479Z,54.65
2018-02-24T17:11:41.652Z,55.03
2018-02-24T17:12:40.867Z,55.60
2018-02-24T17:13:40.811Z,55.22
2018-02-24T17:14:41.025Z,54.93
2018-02-24T17:15:41.855Z,54.84
2018-02-24T17:16:40.799Z,54.55
2018-02-24T17:17:40.697Z,54.74
2018-02-24T17:18:40.982Z,54.55
2018-02-24T17:19:40.684Z,54.27
2018-02-24T17:20:40.696Z,54.27
2018-02-24T17:23:03.953Z,54.18
2018-02-24T17:26:03.853Z,54.18
2018-02-24T17:27:03.849Z,54.27
2018-02-24T17:28:04.958Z,54.46
2018-02-24T17:29:03.727Z,53.99
2018-02-24T17:30:13.474Z,53.99
2018-02-24T17:31:58.119Z,54.46
2018-02-24T17:33:58.935Z,54.27
2018-02-24T17:34:57.959Z,54.46
2018-02-24T17:35:57.966Z,54.46
2018-02-24T17:36:58.956Z,54.37
2018-02-24T17:37:57.896Z,54.37
2018-02-24T17:38:57.865Z,53.89
2018-02-24T17:39:57.874Z,53.89
2018-02-24T17:40:57.863Z,53.99
2018-02-24T17:41:57.789Z,53.80
2018-02-24T17:42:57.813Z,53.89
2018-02-24T17:43:57.723Z,53.70
2018-02-24T17:44:57.688Z,53.89
2018-02-24T17:45:57.672Z,53.99
2018-02-24T17:46:58.142Z,53.42
2018-02-24T17:47:57.654Z,53.70
2018-02-24T17:48:57.810Z,53.33
2018-02-24T17:49:57.570Z,53.14
2018-02-24T17:52:20.678Z,53.99
2018-02-24T17:53:20.561Z,53.80
2018-02-24T17:54:20.933Z,53.89
2018-02-24T17:55:20.505Z,52.95
2018-02-24T17:56:20.515Z,53.14
2018-02-24T17:57:20.462Z,53.23
2018-02-24T17:58:20.435Z,52.67
2018-02-24T17:59:20.423Z,52.67
2018-02-24T18:00:20.596Z,53.05
2018-02-24T18:01:20.418Z,52.57
2018-02-24T18:03:20.355Z,52.48
2018-02-24T18:05:43.355Z,52.10
2018-02-24T18:06:43.291Z,52.29
2018-02-24T18:07:43.261Z,52.19
2018-02-24T18:08:43.350Z,52.10
2018-02-24T18:09:43.221Z,52.00
2018-02-24T18:10:43.191Z,51.81
2018-02-24T18:11:43.152Z,51.81
2018-02-24T18:12:43.129Z,51.34
2018-02-24T18:13:43.103Z,51.62
2018-02-24T18:14:43.098Z,51.43
2018-02-24T18:15:43.097Z,51.62
2018-02-24T18:16:43.062Z,51.72
2018-02-24T18:17:42.985Z,51.81
2018-02-24T18:18:43.015Z,51.43
2018-02-24T18:19:42.936Z,51.62
2018-02-24T18:20:42.913Z,51.72
2018-02-24T18:21:42.882Z,51.53
2018-02-24T18:22:42.862Z,51.62
2018-02-24T18:23:42.839Z,51.34
2018-02-24T18:24:42.817Z,51.62
2018-02-24T18:25:42.838Z,51.72
2018-02-24T18:26:42.759Z,51.81
2018-02-24T18:27:42.714Z,52.10
2018-02-24T18:28:42.796Z,51.53
2018-02-24T18:29:42.667Z,51.62
2018-02-24T18:30:42.639Z,51.81
2018-02-24T18:31:42.698Z,51.62
2018-02-24T18:32:42.641Z,51.62
2018-02-24T18:33:42.575Z,51.25
2018-02-24T18:34:42.549Z,51.43
2018-02-24T18:35:42.512Z,51.72
2018-02-24T18:36:42.486Z,51.81
2018-02-24T18:37:42.465Z,51.43
2018-02-24T18:38:42.475Z,51.53
2018-02-24T18:39:42.435Z,51.81
2018-02-24T18:40:42.386Z,51.43
2018-02-24T18:41:42.345Z,51.62
2018-02-24T18:42:42.315Z,51.53
2018-02-24T18:43:42.301Z,51.06
2018-02-24T18:44:42.274Z,51.15
2018-02-24T18:45:42.235Z,51.62
2018-02-24T18:46:42.210Z,50.87
2018-02-24T18:47:42.183Z,50.87
2018-02-24T18:48:42.151Z,51.62
2018-02-24T18:49:42.121Z,51.62
2018-02-24T18:50:42.108Z,51.15
2018-02-24T18:51:42.092Z,51.03
2018-02-24T18:52:42.047Z,51.53
2018-02-24T18:55:06.104Z,51.15
2018-02-24T18:56:05.073Z,50.96
2018-02-24T18:57:05.010Z,51.34
2018-02-24T18:59:28.050Z,51.62
2018-02-24T19:00:28.368Z,51.53
2018-02-24T19:01:28.028Z,51.72
2018-02-24T19:02:27.910Z,51.72
2018-02-24T19:03:36.648Z,51.79
2018-02-24T19:05:22.660Z,51.50
2018-02-24T19:06:22.388Z,51.88
2018-02-24T19:07:22.591Z,51.69
2018-02-24T19:08:22.318Z,51.88
2018-02-24T19:09:31.078Z,51.88
2018-02-24T19:11:17.959Z,52.07
2018-02-24T19:12:17.660Z,52.17
2018-02-24T19:13:27.680Z,51.98
2018-02-24T19:15:22.129Z,52.07
2018-02-24T19:16:11.937Z,51.88
2018-02-24T19:17:15.307Z,52.07
2018-02-24T19:18:11.883Z,52.36
2018-02-24T19:19:11.855Z,52.17
2018-02-24T19:21:35.884Z,52.26
2018-02-24T19:22:35.826Z,52.17
2018-02-24T19:23:35.927Z,52.26
2018-02-24T19:24:35.919Z,52.55
2018-02-24T19:25:35.835Z,52.45
2018-02-24T19:26:35.818Z,52.45
2018-02-24T19:27:35.699Z,52.36
2018-02-24T19:28:35.674Z,52.55
2018-02-24T19:29:35.641Z,52.36
2018-02-24T19:30:35.758Z,52.45
2018-02-24T19:31:35.594Z,52.07
2018-02-24T19:32:35.594Z,52.64
2018-02-24T19:33:35.627Z,52.64
2018-02-24T19:34:37.212Z,52.55
2018-02-24T19:35:35.488Z,52.17
2018-02-24T19:36:35.447Z,52.64
2018-02-24T19:37:35.474Z,52.45
2018-02-24T19:38:35.454Z,52.64
2018-02-24T19:39:35.437Z,52.55
2018-02-24T19:40:35.419Z,52.64
2018-02-24T19:41:35.299Z,52.64
2018-02-24T19:42:35.730Z,53.30
2018-02-24T19:43:35.581Z,53.02
2018-02-24T19:44:35.226Z,53.20
2018-02-24T19:45:35.193Z,53.30
2018-02-24T19:46:35.206Z,53.02
2018-02-24T19:47:35.149Z,53.11
2018-02-24T19:48:35.230Z,53.30
2018-02-24T19:49:35.113Z,53.39
2018-02-24T19:50:35.142Z,53.20
2018-02-24T19:51:35.118Z,52.83
2018-02-24T19:52:35.071Z,53.20
2018-02-24T19:53:35.004Z,53.49
2018-02-24T19:54:34.954Z,53.49
2018-02-24T19:56:57.986Z,53.96
2018-02-24T19:57:57.910Z,53.96
2018-02-24T19:58:58.209Z,53.68
2018-02-24T19:59:57.879Z,54.44
2018-02-24T20:00:57.815Z,54.34
2018-02-24T20:01:57.792Z,54.34
2018-02-24T20:02:57.814Z,54.62
2018-02-24T20:03:57.777Z,54.44
2018-02-24T20:04:57.725Z,54.62
2018-02-24T20:07:30.807Z,55.57
2018-02-24T20:08:20.766Z,55.57
2018-02-24T20:10:43.692Z,55.38
2018-02-24T20:11:43.690Z,55.47
2018-02-24T20:14:06.782Z,55.57
2018-02-24T20:15:06.580Z,55.38
2018-02-24T20:16:06.632Z,55.47
2018-02-24T20:17:06.540Z,55.29
2018-02-24T20:19:41.984Z,55.00
2018-02-24T20:20:31.063Z,54.62
2018-02-24T20:21:30.695Z,54.62
2018-02-24T20:22:30.668Z,54.81
2018-02-24T20:23:30.631Z,54.72
2018-02-24T20:24:30.642Z,54.34
2018-02-24T20:25:39.233Z,54.81
2018-02-24T20:27:26.115Z,54.72
2018-02-24T20:28:26.012Z,54.62
2018-02-24T20:29:25.978Z,54.72
2018-02-24T20:30:26.011Z,54.91
2018-02-24T20:31:25.978Z,54.53
2018-02-24T20:32:25.786Z,54.34
2018-02-24T20:34:56.938Z,53.58
2018-02-24T20:35:47.811Z,53.87
2018-02-24T20:36:47.751Z,53.77
2018-02-24T20:37:47.721Z,53.77
2018-02-24T20:38:47.817Z,53.87
2018-02-24T20:39:47.674Z,53.77
2018-02-24T20:40:47.694Z,53.39
2018-02-24T20:41:47.611Z,52.92
2018-02-24T20:42:47.609Z,52.92
2018-02-24T20:43:47.562Z,52.92
2018-02-24T20:44:47.518Z,53.11
2018-02-24T20:45:47.522Z,52.92
2018-02-24T20:46:47.483Z,53.20
2018-02-24T20:47:47.453Z,53.20
2018-02-24T20:48:47.535Z,52.73
2018-02-24T20:49:47.403Z,53.20
2018-02-24T20:50:47.363Z,53.49
2018-02-24T20:51:47.419Z,53.87
2018-02-24T20:52:47.352Z,53.96
2018-02-24T20:53:47.388Z,53.77
2018-02-24T20:54:47.257Z,53.77
2018-02-24T20:55:47.278Z,54.06
2018-02-24T20:56:47.207Z,53.87
2018-02-24T20:57:47.306Z,53.96
2018-02-24T20:58:47.149Z,53.87
2018-02-24T20:59:47.096Z,53.87
2018-02-24T21:00:47.085Z,53.49
2018-02-24T21:01:47.049Z,53.56
2018-02-24T21:02:47.018Z,53.39
2018-02-24T21:03:47.013Z,53.87
2018-02-24T21:04:46.968Z,53.68
2018-02-24T21:05:47.008Z,53.96
2018-02-24T21:06:46.914Z,53.96
2018-02-24T21:07:46.870Z,53.94
2018-02-24T21:08:46.859Z,54.06
2018-02-24T21:09:46.897Z,54.41
2018-02-24T21:10:46.812Z,54.22
2018-02-24T21:11:46.768Z,53.87
2018-02-24T21:12:46.811Z,53.75
2018-02-24T21:13:46.734Z,53.94
2018-02-24T21:14:46.696Z,53.65
2018-02-24T21:15:46.690Z,53.65
2018-02-24T21:16:46.669Z,53.75
2018-02-24T21:17:46.589Z,54.22
2018-02-24T21:18:46.598Z,54.50
2018-02-24T21:19:46.542Z,54.41
2018-02-24T21:20:46.522Z,54.50
2018-02-24T21:21:46.642Z,54.32
2018-02-24T21:22:46.469Z,54.50
2018-02-24T21:23:46.457Z,54.22
2018-02-24T21:24:46.405Z,54.13
2018-02-24T21:25:46.366Z,54.32
2018-02-24T21:26:46.413Z,54.41
2018-02-24T21:27:46.340Z,54.13
2018-02-24T21:28:46.335Z,54.13
2018-02-24T21:29:46.285Z,54.50
2018-02-24T21:30:46.231Z,54.69
2018-02-24T21:31:46.217Z,54.32
2018-02-24T21:32:46.174Z,54.41
2018-02-24T21:33:46.149Z,54.03
2018-02-24T21:34:46.115Z,54.32
2018-02-24T21:35:46.090Z,54.32
2018-02-24T21:36:46.157Z,54.50
2018-02-24T21:37:46.029Z,54.50
2018-02-24T21:38:46.007Z,54.32
2018-02-24T21:39:45.978Z,54.32
2018-02-24T21:40:46.036Z,54.32
2018-02-24T21:41:45.945Z,54.41
2018-02-24T21:42:45.907Z,54.13
2018-02-24T21:43:45.981Z,54.41
2018-02-24T21:44:45.873Z,54.41
2018-02-24T21:45:45.813Z,53.94
2018-02-24T21:46:45.779Z,54.03
2018-02-24T21:47:45.762Z,54.03
2018-02-24T21:48:45.730Z,54.32
2018-02-24T21:49:45.696Z,54.03
2018-02-24T21:50:45.693Z,54.60
2018-02-24T21:51:45.674Z,54.22
2018-02-24T21:52:45.611Z,54.97
2018-02-24T21:53:45.580Z,54.60
2018-02-24T21:54:45.555Z,54.79
2018-02-24T21:55:45.519Z,55.07
2018-02-24T21:56:45.492Z,54.97
2018-02-24T21:57:45.502Z,54.88
2018-02-24T21:58:45.481Z,55.07
2018-02-24T21:59:45.453Z,54.97
2018-02-24T22:00:45.385Z,54.60
2018-02-24T22:01:45.370Z,54.50
2018-02-24T22:02:45.371Z,54.60
2018-02-24T22:03:45.294Z,54.97
2018-02-24T22:04:45.277Z,55.07
2018-02-24T22:05:45.247Z,55.16
2018-02-24T22:06:45.210Z,54.79
2018-02-24T22:07:45.204Z,55.07
2018-02-24T22:08:45.156Z,54.88
2018-02-24T22:09:45.126Z,55.26
2018-02-24T22:10:45.126Z,55.07
2018-02-24T22:11:45.119Z,54.97
2018-02-24T22:12:45.072Z,55.35
2018-02-24T22:13:45.014Z,55.54
2018-02-24T22:14:44.985Z,55.07
2018-02-24T22:15:45.015Z,55.63
2018-02-24T22:16:44.997Z,55.35
2018-02-24T22:17:44.897Z,55.16
2018-02-24T22:18:44.899Z,55.63
2018-02-24T22:19:44.848Z,55.44